Silly, Belgium
Current Conditions -  °F | °C
As of 11:25 PM on Tuesday 27 Jan 2015 (Local Time) from EBCV Reporting Station
Overcast Overcast  
Wind Chill: 34°   Ceiling: 3700
Heat Index: 39°   Visibility: 5mi
Dew Point: 39°   Wind: 7mph
Humidity: 100%   Direction: 210°SSW
Pressure: 30.27"   Gusts: NA
Location:  50.65°N, 3.92°E
Report Text: EBCV 272225Z AUTO 21006KT 8000 SCT025/// OVC037/// 04/04 Q1025 BLU
Loading
Personal Weather Stations






























Interactive Weather Map New forecast layout! Learn more

10-Day Weather Forecast

Advertisements
Track Severe Weather on mobile